Peary Spirit — C6YM3 — position and weather

sailwx.info

Track history (hours):
 
Tides and Currents Weather Stations Pressure Air Temp Water Temp Dewpoint Dewpoint Depression Visibility Wind Speed Wind Dir Waves Ship Positions

Peary Spirit

Last reported at 2015-Jul-01 17:27 UTC. Time now 2015-Jul-06 02:53 UTC.
Position N 59°12' E 004°21'.

Length 249 m; draft 9.3 m.

Type: Tanker. MMSI: 311027600.

Date/timePositionNaut miles runAvg speedWind from/ knotsBaromVisibWave heightAir tempDewpointWater temp
2015-Jul-01 17:27N 59°12' E 004°21'1516.3
2015-Jul-01 16:31N 58°59' E 004°37'1515.3
2015-Jul-01 15:33N 58°47' E 004°52'3 3.5
2015-Jul-01 14:33N 58°45' E 004°59'0 0.2
2015-Jul-01 13:33N 58°45' E 004°58'1 0.9
2015-Jul-01 12:33N 58°46' E 004°57'1 1.1
2015-Jul-01 11:33N 58°46' E 004°55'2 1.9
2015-Jul-01 10:33N 58°47' E 004°52'5 4.9
2015-Jul-01 09:33N 58°47' E 004°42'1413.5
2015-Jul-01 08:33N 58°44' E 004°17'1312.9
2015-Jul-01 07:33N 58°32' E 004°09'15313.6
2015-Jun-30 20:17N 55°59' E 003°50'5613.4
2015-Jun-30 16:05N 55°06' E 004°20'4214.8
2015-Jun-30 13:16N 54°25' E 004°33'1114.7
2015-Jun-30 12:33N 54°14' E 004°37'1414.3
2015-Jun-30 11:33N 54°00' E 004°38'1414.3
2015-Jun-30 10:33N 53°48' E 004°25'3514.5
2015-Jun-30 08:10N 53°25' E 003°42'914.4
2015-Jun-30 07:33N 53°17' E 003°36'1414.2
2015-Jun-30 06:33N 53°03' E 003°27'1714.4
2015-Jun-30 05:23N 52°48' E 003°15'1214.9
2015-Jun-30 04:33N 52°37' E 003°05'1312.3
2015-Jun-30 03:31N 52°25' E 003°05'1515.7
2015-Jun-30 02:33N 52°14' E 003°23'1515.0
2015-Jun-30 01:34N 52°05' E 003°42'1110.8
2015-Jun-30 00:33N 52°01' E 003°59'10 9.6
2015-Jun-29 23:33N 51°56' E 004°12'1 0.7
2015-Jun-29 22:33N 51°55' E 004°12'0 0.0
2015-Jun-29 21:30N 51°55' E 004°12'0 0.0
2015-Jun-29 20:33N 51°55' E 004°12'0 0.0
2015-Jun-29 19:33N 51°55' E 004°12'0 0.0
2015-Jun-29 18:33N 51°55' E 004°12'0 0.0
2015-Jun-29 17:33N 51°55' E 004°12'0 0.0
2015-Jun-29 16:33N 51°55' E 004°12'0 0.0
2015-Jun-29 15:33N 51°55' E 004°12'0 0.0
2015-Jun-29 14:33N 51°55' E 004°12'0 0.0
2015-Jun-29 13:33N 51°55' E 004°12'0 0.0
2015-Jun-29 12:30N 51°55' E 004°12'0 0.0
2015-Jun-29 11:30N 51°55' E 004°12'0 0.0
2015-Jun-29 10:33N 51°55' E 004°12'0 0.0
2015-Jun-29 09:33N 51°55' E 004°12'0 0.0
2015-Jun-29 08:30N 51°55' E 004°12'0 0.0
2015-Jun-29 07:33N 51°55' E 004°12'0 0.0
2015-Jun-29 06:33N 51°55' E 004°12'1 1.2
2015-Jun-29 05:33N 51°56' E 004°11'7 7.1
2015-Jun-29 04:33N 51°60' E 004°01'1211.6
2015-Jun-29 03:33N 52°02' E 003°43'1312.6
2015-Jun-29 02:33N 52°09' E 003°25'1312.8
2015-Jun-29 01:33N 52°17' E 003°09'5510.8
2015-Jun-28 20:27N 53°11' E 003°24'4711.9
2015-Jun-28 16:33N 53°52' E 004°00'1212.0
2015-Jun-28 15:33N 53°59' E 004°16'  
2015-Jun-22 16:31N 54°02' E 004°39'7 6.9
2015-Jun-22 15:31N 53°56' E 004°36'11012.2
2015-Jun-22 06:31N 52°16' E 003°20'1515.3
2015-Jun-22 05:33N 52°06' E 003°39'1212.4
2015-Jun-22 04:33N 52°02' E 003°57'9 8.9
2015-Jun-22 03:34N 51°57' E 004°10'0 0.3
2015-Jun-22 02:33N 51°57' E 004°10'0 0.0
2015-Jun-22 01:33N 51°57' E 004°10'0 0.0
2015-Jun-22 00:33N 51°57' E 004°10'0 0.0
2015-Jun-21 23:33N 51°57' E 004°10'0 0.0
2015-Jun-21 22:33N 51°57' E 004°10'0 0.0
2015-Jun-21 21:30N 51°57' E 004°10'0 0.0
2015-Jun-21 20:33N 51°57' E 004°10'0 0.0
2015-Jun-21 19:30N 51°57' E 004°10'0 0.0
2015-Jun-21 18:30N 51°57' E 004°10'0 0.0
2015-Jun-21 17:33N 51°57' E 004°10'  
Track history (hours):
 
Tides and Currents Weather Stations Pressure Air Temp Water Temp Dewpoint Dewpoint Depression Visibility Wind Speed Wind Dir Waves Ship Positions

Peary Spirit

Last reported at 2015-Jul-01 17:27 UTC. Time now 2015-Jul-06 02:53 UTC.
Position N 59°12' E 004°21'.

Length 249 m; draft 9.3 m.

Type: Tanker. MMSI: 311027600.

Date/timePositionNaut miles runAvg speedWind from/ knotsBaromVisibWave heightAir tempDewpointWater temp
2015-Jul-01 17:27N 59°12' E 004°21'1516.3
2015-Jul-01 16:31N 58°59' E 004°37'1515.3
2015-Jul-01 15:33N 58°47' E 004°52'3 3.5
2015-Jul-01 14:33N 58°45' E 004°59'0 0.2
2015-Jul-01 13:33N 58°45' E 004°58'1 0.9
2015-Jul-01 12:33N 58°46' E 004°57'1 1.1
2015-Jul-01 11:33N 58°46' E 004°55'2 1.9
2015-Jul-01 10:33N 58°47' E 004°52'5 4.9
2015-Jul-01 09:33N 58°47' E 004°42'1413.5
2015-Jul-01 08:33N 58°44' E 004°17'1312.9
2015-Jul-01 07:33N 58°32' E 004°09'15313.6
2015-Jun-30 20:17N 55°59' E 003°50'5613.4
2015-Jun-30 16:05N 55°06' E 004°20'4214.8
2015-Jun-30 13:16N 54°25' E 004°33'1114.7
2015-Jun-30 12:33N 54°14' E 004°37'1414.3
2015-Jun-30 11:33N 54°00' E 004°38'1414.3
2015-Jun-30 10:33N 53°48' E 004°25'3514.5
2015-Jun-30 08:10N 53°25' E 003°42'914.4
2015-Jun-30 07:33N 53°17' E 003°36'1414.2
2015-Jun-30 06:33N 53°03' E 003°27'1714.4
2015-Jun-30 05:23N 52°48' E 003°15'1214.9
2015-Jun-30 04:33N 52°37' E 003°05'1312.3
2015-Jun-30 03:31N 52°25' E 003°05'1515.7
2015-Jun-30 02:33N 52°14' E 003°23'1515.0
2015-Jun-30 01:34N 52°05' E 003°42'1110.8
2015-Jun-30 00:33N 52°01' E 003°59'10 9.6
2015-Jun-29 23:33N 51°56' E 004°12'1 0.7
2015-Jun-29 22:33N 51°55' E 004°12'0 0.0
2015-Jun-29 21:30N 51°55' E 004°12'0 0.0
2015-Jun-29 20:33N 51°55' E 004°12'0 0.0
2015-Jun-29 19:33N 51°55' E 004°12'0 0.0
2015-Jun-29 18:33N 51°55' E 004°12'0 0.0
2015-Jun-29 17:33N 51°55' E 004°12'0 0.0
2015-Jun-29 16:33N 51°55' E 004°12'0 0.0
2015-Jun-29 15:33N 51°55' E 004°12'0 0.0
2015-Jun-29 14:33N 51°55' E 004°12'0 0.0
2015-Jun-29 13:33N 51°55' E 004°12'0 0.0
2015-Jun-29 12:30N 51°55' E 004°12'0 0.0
2015-Jun-29 11:30N 51°55' E 004°12'0 0.0
2015-Jun-29 10:33N 51°55' E 004°12'0 0.0
2015-Jun-29 09:33N 51°55' E 004°12'0 0.0
2015-Jun-29 08:30N 51°55' E 004°12'0 0.0
2015-Jun-29 07:33N 51°55' E 004°12'0 0.0
2015-Jun-29 06:33N 51°55' E 004°12'1 1.2
2015-Jun-29 05:33N 51°56' E 004°11'7 7.1
2015-Jun-29 04:33N 51°60' E 004°01'1211.6
2015-Jun-29 03:33N 52°02' E 003°43'1312.6
2015-Jun-29 02:33N 52°09' E 003°25'1312.8
2015-Jun-29 01:33N 52°17' E 003°09'5510.8
2015-Jun-28 20:27N 53°11' E 003°24'4711.9
2015-Jun-28 16:33N 53°52' E 004°00'1212.0
2015-Jun-28 15:33N 53°59' E 004°16'  
2015-Jun-22 16:31N 54°02' E 004°39'7 6.9
2015-Jun-22 15:31N 53°56' E 004°36'11012.2
2015-Jun-22 06:31N 52°16' E 003°20'1515.3
2015-Jun-22 05:33N 52°06' E 003°39'1212.4
2015-Jun-22 04:33N 52°02' E 003°57'9 8.9
2015-Jun-22 03:34N 51°57' E 004°10'0 0.3
2015-Jun-22 02:33N 51°57' E 004°10'0 0.0
2015-Jun-22 01:33N 51°57' E 004°10'0 0.0
2015-Jun-22 00:33N 51°57' E 004°10'0 0.0
2015-Jun-21 23:33N 51°57' E 004°10'0 0.0
2015-Jun-21 22:33N 51°57' E 004°10'0 0.0
2015-Jun-21 21:30N 51°57' E 004°10'0 0.0
2015-Jun-21 20:33N 51°57' E 004°10'0 0.0
2015-Jun-21 19:30N 51°57' E 004°10'0 0.0
2015-Jun-21 18:30N 51°57' E 004°10'0 0.0
2015-Jun-21 17:33N 51°57' E 004°10'  

Dump ship's entire track history